Aérodrome :
LOGIN :

S'inscrire | Disclaimer

   EN    FR    IT 

 










Légende :    VFR   VFR Marginal   IFR   IFR Intensif   IFR Très Intensif
Visi : 
Plafond : 
>= 8 km
>= 3000ft
5 à 8 km
1000 à 3000 ft
1500m à 5 km
500 à 1000 ft
800 à 1500m
200 à 500 ft
< 800m
< 200 ft
Symboles :   Orages  Brouillard  Fortes neiges  Fortes précipitations  Vent > 20 kt
SIGMETs :   Divers  Orages  Givrage  Turbulence  Onde Orograph.  Cendres Volcan.






- Altitude de l'aérodrome : 138 ft
- Code IATA : BIO


LEBB - Bilbao

DERNIER METAR :
  • 171730Z 30011KT 280V350 9999 SCT028 BKN040 12/08 Q1032 NOSIG

METARs EXPIRÉS :
  • 171700Z 30015KT 9999 FEW030 SCT060 12/07 Q1032 NOSIG
  • 171630Z 30017KT 9999 FEW035 BKN059 13/06 Q1031 NOSIG
  • 171600Z 30016KT 9999 FEW030 BKN059 13/07 Q1031 NOSIG
  • 171530Z 30014G25KT 9999 FEW030 BKN057 12/07 Q1031 NOSIG
  • 171500Z 31017KT 9999 FEW030 SCT046 BKN055 12/07 Q1030 NOSIG

TAF TAF LEBB
Valide du 17 à 18h jusqu'au 18 à 18h UTC


171700Z 1718/1818 30009KT 9999 SCT035 TX13/1812Z TN05/1806Z
TEMPO 1718/1721 30015G25KT
PROB30
TEMPO 1718/1721 SHRA SCT030TCU
PROB40
TEMPO 1718/1724 SCT030TCU



MET'MAP, la Météo Aéronautique d'un coup d'oeil ! - Copyright ORBIFLY Décembre 2007 - Disclaimer

ORBIFLY MET'MAP TEAM :

Programmation & Développement : Alexandra Zaïnal
Sur une idée originale de : Baudouin d'Aumeries
Assistance à la programmation : Marc-Olivier Méhu
Soutien technique & logistique : Manuel Goepfert

Contact : metmap@orbifly.com




SOURCES & CREDITS :

   NOAA